Time;durP1;ratioP1;P1;durP2;ratioP2;P2;SDS_P1;SDS_P2;PMS_P1;PMS_P2;Temp;Humidity;BMP_temperature;BMP_pressure;BME280_temperature;BME280_humidity;BME280_pressure;Samples;Min_cycle;Max_cycle;Signal;HPM_P1;HPM_P2
2022/01/29 00:01:33;;;;;;;;;;;;;;;;;;5092099;28;19931;-80
2022/01/29 00:03:59;;;;;;;;;;;5.80;99.90;;;;;;5092570;28;19908;-81
2022/01/29 00:06:25;;;;;;;;;;;;;;;;;;5091953;28;19908;-80
2022/01/29 00:08:52;;;;;;;;;;;5.80;99.90;;;;;;5092821;28;19954;-81
2022/01/29 00:11:18;;;;;;;;;;;5.90;99.90;;;;;;5092407;28;20359;-82
2022/01/29 00:13:44;;;;;;;;;;;5.90;99.90;;;;;;5073924;28;20306;-81
2022/01/29 00:16:09;;;;;;;;;;;5.90;99.90;;;;;;5092359;28;19909;-82
2022/01/29 00:18:35;;;;;;;;;;;5.90;99.90;;;;;;5091448;28;19950;-82
2022/01/29 00:21:00;;;;;;;;;;;5.90;99.90;;;;;;5092170;28;19912;-81
2022/01/29 00:23:26;;;;;;;;;;;5.90;99.90;;;;;;5091837;28;19920;-81
2022/01/29 00:25:52;;;;;;;;;;;5.90;99.90;;;;;;5092105;28;19907;-81
2022/01/29 00:28:17;;;;;;;;;;;5.90;99.90;;;;;;5074400;28;19965;-82
2022/01/29 00:30:44;;;;;;;;;;;5.90;99.90;;;;;;5076765;28;20276;-81
2022/01/29 00:33:10;;;;;;;;;;;6.00;99.90;;;;;;5096194;28;19908;-81
2022/01/29 00:35:36;;;;;;;;;;;5.90;99.90;;;;;;5095397;28;19908;-80
2022/01/29 00:38:01;;;;;;;;;;;5.90;99.90;;;;;;5096373;28;20348;-81
2022/01/29 00:40:27;;;;;;;;;;;5.90;99.90;;;;;;5095485;28;19912;-80
2022/01/29 00:42:53;;;;;;;;;;;6.00;99.90;;;;;;5095918;28;19920;-82
2022/01/29 00:45:18;;;;;;;;;;;5.90;99.90;;;;;;5095860;28;20361;-81
2022/01/29 00:47:44;;;;;;;;;;;5.90;99.90;;;;;;5095572;28;20198;-81
2022/01/29 00:50:11;;;;;;;;;;;6.00;99.90;;;;;;5095862;28;19930;-81
2022/01/29 00:52:38;;;;;;;;;;;5.90;99.90;;;;;;5094834;28;19947;-81
2022/01/29 00:55:07;;;;;;;;;;;6.00;99.90;;;;;;5095845;28;19942;-81
2022/01/29 00:57:33;;;;;;;;;;;6.00;99.90;;;;;;5095029;28;20002;-81
2022/01/29 00:59:59;;;;;;;;;;;6.00;99.90;;;;;;5077430;28;19912;-82
2022/01/29 01:02:25;;;;;;;;;;;5.90;99.90;;;;;;5095148;28;19922;-82
2022/01/29 01:04:50;;;;;;;;;;;5.90;99.90;;;;;;5095133;28;19908;-81
2022/01/29 01:07:16;;;;;;;;;;;6.00;99.90;;;;;;5095213;28;19909;-82
2022/01/29 01:09:41;;;;;;;;;;;6.00;99.90;;;;;;5076685;28;19908;-81
2022/01/29 01:12:07;;;;;;;;;;;6.00;99.90;;;;;;5095210;28;19912;-82
2022/01/29 01:14:33;;;;;;;;;;;6.00;99.90;;;;;;5076626;28;19908;-81
2022/01/29 01:16:58;;;;;;;;;;;6.00;99.90;;;;;;5095169;28;19908;-82
2022/01/29 01:19:26;;;;;;;;;;;6.00;99.90;;;;;;5095245;28;20007;-81
2022/01/29 01:21:55;;;;;;;;;;;6.00;99.90;;;;;;5094524;28;20007;-81
2022/01/29 01:24:21;;;;;;;;;;;6.00;99.90;;;;;;5095194;28;19981;-81
2022/01/29 01:26:47;;;;;;;;;;;6.00;99.90;;;;;;5076329;28;20197;-81
2022/01/29 01:29:12;;;;;;;;;;;6.10;99.90;;;;;;5095117;28;19908;-81
2022/01/29 01:31:39;;;;;;;;;;;6.10;99.90;;;;;;5094368;28;19912;-81
2022/01/29 01:34:06;;;;;;;;;;;6.10;99.90;;;;;;5094981;28;19908;-81
2022/01/29 01:36:34;;;;;;;;;;;6.10;99.90;;;;;;5094191;28;19914;-80
2022/01/29 01:39:05;;;;;;;;;;;6.10;99.90;;;;;;5076683;28;20314;-81
2022/01/29 01:41:37;;;;;;;;;;;6.10;99.90;;;;;;5076096;28;20269;-80
2022/01/29 01:44:02;;;;;;;;;;;6.10;99.90;;;;;;5095012;28;19947;-82
2022/01/29 01:46:28;;;;;;;;;;;;;;;;;;5094335;28;20289;-77
2022/01/29 01:48:55;;;;;;;;;;;6.10;99.90;;;;;;5094691;28;19960;-80
2022/01/29 01:51:20;;;;;;;;;;;6.10;99.90;;;;;;5076314;28;19935;-80
2022/01/29 01:53:46;;;;;;;;;;;6.10;99.90;;;;;;5093988;28;20431;-81
2022/01/29 01:56:11;;;;;;;;;;;6.10;99.90;;;;;;5094856;28;20348;-81
2022/01/29 01:58:36;;;;;;;;;;;6.10;99.90;;;;;;5093940;28;20549;-80
2022/01/29 02:01:02;;;;;;;;;;;6.10;99.90;;;;;;5094272;28;19954;-81
2022/01/29 02:03:28;;;;;;;;;;;6.10;99.90;;;;;;5094043;28;20019;-81
2022/01/29 02:05:53;;;;;;;;;;;6.10;99.90;;;;;;5075167;28;19915;-82
2022/01/29 02:08:19;;;;;;;;;;;6.10;99.90;;;;;;5076148;28;19912;-81
2022/01/29 02:10:46;;;;;;;;;;;6.10;99.90;;;;;;5093639;28;19950;-80
2022/01/29 02:13:12;;;;;;;;;;;6.10;99.90;;;;;;5094545;28;20245;-80
2022/01/29 02:15:37;;;;;;;;;;;6.10;99.90;;;;;;5093278;28;19912;-81
2022/01/29 02:18:04;;;;;;;;;;;6.10;99.90;;;;;;5094112;28;19946;-81
2022/01/29 02:20:30;;;;;;;;;;;;;;;;;;5075759;28;19915;-77
2022/01/29 02:22:56;;;;;;;;;;;6.20;99.90;;;;;;5093314;28;19920;-81
2022/01/29 02:25:34;;;;;;;;;;;6.20;99.90;;;;;;5075792;28;20264;-82
2022/01/29 02:28:00;;;;;;;;;;;6.20;99.90;;;;;;5094349;28;19934;-81
2022/01/29 02:30:29;;;;;;;;;;;;;;;;;;5075677;28;20246;-82
2022/01/29 02:32:55;;;;;;;;;;;6.20;99.90;;;;;;5075030;28;19956;-81
2022/01/29 02:35:20;;;;;;;;;;;6.20;99.90;;;;;;5093710;28;19943;-81
2022/01/29 02:37:50;;;;;;;;;;;6.20;99.90;;;;;;5074963;28;20325;-80
2022/01/29 02:40:17;;;;;;;;;;;6.20;99.90;;;;;;5093406;28;20415;-81
2022/01/29 02:42:42;;;;;;;;;;;6.10;99.90;;;;;;5092890;28;19916;-80
2022/01/29 02:45:08;;;;;;;;;;;6.10;99.90;;;;;;5093142;28;19966;-81
2022/01/29 02:47:33;;;;;;;;;;;;;;;;;;5093080;28;19908;-80
2022/01/29 02:49:59;;;;;;;;;;;6.10;99.90;;;;;;5093573;28;20343;-80
2022/01/29 02:52:24;;;;;;;;;;;6.10;99.90;;;;;;5074772;28;19912;-81
2022/01/29 02:54:50;;;;;;;;;;;6.00;99.90;;;;;;5092869;28;20356;-80
2022/01/29 02:57:15;;;;;;;;;;;6.00;99.90;;;;;;5093167;28;19908;-80
2022/01/29 02:59:41;;;;;;;;;;;6.00;99.90;;;;;;5074671;28;19953;-80
2022/01/29 03:02:06;;;;;;;;;;;5.90;99.90;;;;;;5093301;28;19916;-80
2022/01/29 03:04:32;;;;;;;;;;;;;;;;;;5093215;28;19915;-80
2022/01/29 03:06:58;;;;;;;;;;;6.00;99.90;;;;;;5093468;28;19964;-81
2022/01/29 03:09:23;;;;;;;;;;;5.90;99.90;;;;;;5093290;28;19908;-80
2022/01/29 03:11:49;;;;;;;;;;;5.90;99.90;;;;;;5092651;28;19908;-80
2022/01/29 03:14:14;;;;;;;;;;;5.90;99.90;;;;;;5093302;28;20357;-80
2022/01/29 03:16:40;;;;;;;;;;;5.80;99.90;;;;;;5074447;28;19922;-80
2022/01/29 03:19:05;;;;;;;;;;;5.80;99.90;;;;;;5075258;28;19999;-81
2022/01/29 03:21:31;;;;;;;;;;;5.80;99.90;;;;;;5099139;28;20022;-80
2022/01/29 03:23:56;;;;;;;;;;;5.70;99.90;;;;;;5094781;28;20279;-81
2022/01/29 03:26:22;;;;;;;;;;;5.70;99.90;;;;;;5113462;28;19934;-81
2022/01/29 03:28:47;;;;;;;;;;;5.70;99.90;;;;;;5112872;28;19912;-81
2022/01/29 03:31:13;;;;;;;;;;;5.70;99.90;;;;;;5113758;28;20375;-81
2022/01/29 03:33:38;;;;;;;;;;;5.60;99.90;;;;;;5112822;28;19907;-80
2022/01/29 03:36:05;;;;;;;;;;;5.60;99.90;;;;;;5097115;28;19915;-80
2022/01/29 03:38:31;;;;;;;;;;;5.60;99.90;;;;;;5074916;28;19919;-81
2022/01/29 03:40:58;;;;;;;;;;;5.60;99.90;;;;;;5092106;28;19908;-81
2022/01/29 03:43:28;;;;;;;;;;;5.60;99.90;;;;;;5092946;28;19912;-82
2022/01/29 03:45:54;;;;;;;;;;;5.60;99.90;;;;;;5092381;28;20007;-80
2022/01/29 03:48:20;;;;;;;;;;;5.60;99.90;;;;;;5092637;28;19987;-81
2022/01/29 03:50:45;;;;;;;;;;;5.60;99.90;;;;;;5092186;28;19954;-80
2022/01/29 03:53:11;;;;;;;;;;;5.60;99.90;;;;;;5092600;28;20390;-81
2022/01/29 03:55:36;;;;;;;;;;;;;;;;;;5092242;28;19908;-79
2022/01/29 03:58:02;;;;;;;;;;;5.60;99.90;;;;;;5092776;28;19908;-81
2022/01/29 04:00:27;;;;;;;;;;;5.60;99.90;;;;;;5092740;28;20280;-81
2022/01/29 04:02:53;;;;;;;;;;;5.60;99.90;;;;;;5092095;28;19915;-81
2022/01/29 04:05:18;;;;;;;;;;;5.70;99.90;;;;;;5095193;28;19919;-81
2022/01/29 04:07:44;;;;;;;;;;;5.70;99.90;;;;;;5096079;28;19908;-80
2022/01/29 04:10:12;;;;;;;;;;;5.70;99.90;;;;;;5096633;28;19915;-81
2022/01/29 04:12:43;;;;;;;;;;;;;;;;;;5077842;28;19912;-80
2022/01/29 04:15:09;;;;;;;;;;;;;;;;;;5096649;28;19915;-81
2022/01/29 04:17:34;;;;;;;;;;;5.60;99.90;;;;;;5096483;28;19999;-81
2022/01/29 04:20:00;;;;;;;;;;;5.60;99.90;;;;;;5095875;28;20354;-81
2022/01/29 04:22:25;;;;;;;;;;;5.70;99.90;;;;;;5096226;28;20440;-81
2022/01/29 04:24:51;;;;;;;;;;;5.60;99.90;;;;;;5095664;28;19913;-80
2022/01/29 04:27:20;;;;;;;;;;;5.70;99.90;;;;;;5096005;28;19909;-81
2022/01/29 04:29:58;;;;;;;;;;;5.60;99.90;;;;;;5077600;28;20315;-80
2022/01/29 04:35:08;;;;;;;;;;;5.70;99.90;;;;;;5096124;28;20372;-81
2022/01/29 04:37:34;;;;;;;;;;;5.70;99.90;;;;;;5096081;28;19908;-81
2022/01/29 04:39:59;;;;;;;;;;;5.70;99.90;;;;;;5095445;28;19962;-81
2022/01/29 04:42:26;;;;;;;;;;;5.70;99.90;;;;;;5095645;28;20261;-80
2022/01/29 04:44:51;;;;;;;;;;;5.70;99.90;;;;;;5077138;28;19961;-80
2022/01/29 04:47:17;;;;;;;;;;;5.70;99.90;;;;;;5095895;28;19908;-81
2022/01/29 04:49:42;;;;;;;;;;;5.70;99.90;;;;;;5077092;28;19915;-80
2022/01/29 04:52:08;;;;;;;;;;;5.70;99.90;;;;;;5095904;28;19960;-81
2022/01/29 04:54:33;;;;;;;;;;;5.70;99.90;;;;;;5095454;28;19912;-82
2022/01/29 04:56:59;;;;;;;;;;;5.70;99.90;;;;;;5095105;28;20529;-81
2022/01/29 04:59:24;;;;;;;;;;;5.70;99.90;;;;;;5095456;28;19908;-81
2022/01/29 05:01:50;;;;;;;;;;;5.70;99.90;;;;;;5094905;28;19923;-81
2022/01/29 05:04:15;;;;;;;;;;;5.70;99.90;;;;;;5095625;28;20368;-82
2022/01/29 05:06:41;;;;;;;;;;;5.80;99.90;;;;;;5094944;28;19914;-80
2022/01/29 05:09:08;;;;;;;;;;;5.80;99.90;;;;;;5095689;28;19912;-81
2022/01/29 05:11:34;;;;;;;;;;;;;;;;;;5095430;28;19912;-81
2022/01/29 05:14:00;;;;;;;;;;;5.80;99.90;;;;;;5094817;28;20003;-80
2022/01/29 05:27:09;;;;;;;;;;;5.70;99.90;;;;;;5095086;28;19919;-81
2022/01/29 05:29:36;;;;;;;;;;;5.70;99.90;;;;;;5076889;28;19915;-82
2022/01/29 05:32:02;;;;;;;;;;;5.80;99.90;;;;;;5094344;28;20241;-81
2022/01/29 05:34:28;;;;;;;;;;;5.80;99.90;;;;;;5094733;28;19927;-78
2022/01/29 05:36:53;;;;;;;;;;;5.80;99.90;;;;;;5094217;28;19909;-82
2022/01/29 05:39:19;;;;;;;;;;;5.80;99.90;;;;;;5094809;28;20003;-82
2022/01/29 05:41:45;;;;;;;;;;;5.90;99.90;;;;;;5094112;28;20272;-80
2022/01/29 05:44:10;;;;;;;;;;;5.90;99.90;;;;;;5094754;28;20057;-83
2022/01/29 05:46:36;;;;;;;;;;;5.90;99.90;;;;;;5094606;28;19915;-83
2022/01/29 05:49:02;;;;;;;;;;;5.90;99.90;;;;;;5075749;28;20135;-83
2022/01/29 05:51:30;;;;;;;;;;;5.90;99.90;;;;;;5094357;28;19916;-83
2022/01/29 05:53:56;;;;;;;;;;;5.90;99.90;;;;;;5075865;28;20325;-83
2022/01/29 05:56:22;;;;;;;;;;;5.90;99.90;;;;;;5094414;28;19908;-83
2022/01/29 05:58:47;;;;;;;;;;;5.90;99.90;;;;;;5093547;28;19913;-82
2022/01/29 06:01:13;;;;;;;;;;;5.90;99.90;;;;;;5094176;28;19953;-83
2022/01/29 06:03:38;;;;;;;;;;;6.00;99.90;;;;;;5094370;28;19912;-83
2022/01/29 06:06:04;;;;;;;;;;;6.00;99.90;;;;;;5093670;28;19920;-82
2022/01/29 06:08:29;;;;;;;;;;;6.00;99.90;;;;;;5094278;28;20284;-83
2022/01/29 06:10:55;;;;;;;;;;;6.10;99.90;;;;;;5093615;28;19908;-83
2022/01/29 06:13:20;;;;;;;;;;;6.10;99.90;;;;;;5094139;28;19909;-83
2022/01/29 06:15:47;;;;;;;;;;;6.10;99.90;;;;;;5093561;28;19908;-83
2022/01/29 06:18:18;;;;;;;;;;;6.20;99.90;;;;;;5075950;28;19908;-83
2022/01/29 06:20:44;;;;;;;;;;;;;;;;;;5093790;28;19915;-78
2022/01/29 06:23:11;;;;;;;;;;;6.20;99.90;;;;;;5091925;28;19924;-83
2022/01/29 06:25:37;;;;;;;;;;;6.20;99.90;;;;;;5094090;28;19908;-84
2022/01/29 06:28:02;;;;;;;;;;;6.20;99.90;;;;;;5093006;28;19938;-83
2022/01/29 06:30:28;;;;;;;;;;;6.30;99.90;;;;;;5093679;28;19965;-83
2022/01/29 06:32:54;;;;;;;;;;;6.30;99.90;;;;;;5093268;28;19908;-83
2022/01/29 06:35:19;;;;;;;;;;;6.30;99.90;;;;;;5094072;28;19914;-83
2022/01/29 06:37:45;;;;;;;;;;;;;;;;;;5092425;28;20321;-77
2022/01/29 06:40:11;;;;;;;;;;;6.40;99.90;;;;;;5092569;28;19915;-83
2022/01/29 06:42:37;;;;;;;;;;;6.50;99.90;;;;;;5093296;28;20368;-83
2022/01/29 06:45:03;;;;;;;;;;;6.40;99.90;;;;;;5093193;28;19951;-83
2022/01/29 06:47:28;;;;;;;;;;;6.40;99.90;;;;;;5093931;28;19951;-83
2022/01/29 06:49:54;;;;;;;;;;;6.50;99.90;;;;;;5091709;28;20416;-79
2022/01/29 06:52:20;;;;;;;;;;;6.50;99.90;;;;;;5093446;28;19954;-84
2022/01/29 06:54:45;;;;;;;;;;;6.40;99.90;;;;;;5093902;28;19935;-83
2022/01/29 06:57:11;;;;;;;;;;;6.50;99.90;;;;;;5093778;28;19947;-85
2022/01/29 06:59:36;;;;;;;;;;;6.50;99.90;;;;;;5093194;28;19944;-82
2022/01/29 07:02:02;;;;;;;;;;;6.50;99.90;;;;;;5091577;28;20384;-84
2022/01/29 07:04:28;;;;;;;;;;;6.50;99.90;;;;;;5093153;28;19919;-85
2022/01/29 07:06:53;;;;;;;;;;;;;;;;;;5090041;28;20308;-81
2022/01/29 07:09:19;;;;;;;;;;;;;;;;;;5089902;28;19985;-82
2022/01/29 07:11:46;;;;;;;;;;;;;;;;;;5088590;28;19912;-80
2022/01/29 07:14:17;;;;;;;;;;;6.60;99.90;;;;;;5088187;28;19920;-83
2022/01/29 07:16:43;;;;;;;;;;;6.60;99.90;;;;;;5079347;28;20359;-82
2022/01/29 07:19:09;;;;;;;;;;;;;;;;;;5076233;28;19962;-83
2022/01/29 07:21:35;;;;;;;;;;;;;;;;;;5084907;28;19928;-82
2022/01/29 07:24:00;;;;;;;;;;;;;;;;;;5079871;28;20339;-81
2022/01/29 07:26:26;;;;;;;;;;;6.60;99.90;;;;;;5095370;28;19919;-83
2022/01/29 07:28:52;;;;;;;;;;;6.70;99.90;;;;;;5089031;28;19908;-80
2022/01/29 07:31:17;;;;;;;;;;;6.60;99.90;;;;;;5089079;28;20330;-81
2022/01/29 07:33:43;;;;;;;;;;;6.70;99.90;;;;;;5089453;28;19914;-84
2022/01/29 07:36:08;;;;;;;;;;;6.60;99.90;;;;;;5109596;28;19912;-83
2022/01/29 07:38:34;;;;;;;;;;;6.60;99.90;;;;;;5096612;28;20328;-83
2022/01/29 07:40:59;;;;;;;;;;;6.60;99.90;;;;;;5098353;28;19914;-83
2022/01/29 07:43:25;;;;;;;;;;;6.60;99.90;;;;;;5117569;28;19957;-83
2022/01/29 07:45:50;;;;;;;;;;;6.70;99.90;;;;;;5116619;28;20283;-82
2022/01/29 07:48:16;;;;;;;;;;;6.70;99.90;;;;;;5117181;28;19915;-83
2022/01/29 07:50:41;;;;;;;;;;;6.70;99.90;;;;;;5117158;28;20376;-83
2022/01/29 07:53:07;;;;;;;;;;;6.70;99.90;;;;;;5116345;28;19912;-83
2022/01/29 07:55:32;;;;;;;;;;;6.80;99.90;;;;;;5117036;28;19934;-83
2022/01/29 07:57:58;;;;;;;;;;;;;;;;;;5116713;28;20020;-82
2022/01/29 08:00:24;;;;;;;;;;;6.80;99.90;;;;;;5117208;28;19912;-83
2022/01/29 08:02:50;;;;;;;;;;;;;;;;;;5098469;28;19912;-77
2022/01/29 08:05:15;;;;;;;;;;;6.80;99.90;;;;;;5117072;28;19911;-83
2022/01/29 08:07:41;;;;;;;;;;;6.90;99.90;;;;;;5117137;28;19961;-82
2022/01/29 08:10:06;;;;;;;;;;;6.90;99.90;;;;;;5116445;28;20371;-82
2022/01/29 08:12:32;;;;;;;;;;;6.90;99.90;;;;;;5116941;28;19908;-82
2022/01/29 08:14:58;;;;;;;;;;;6.90;99.90;;;;;;5116269;28;19966;-80
2022/01/29 08:17:23;;;;;;;;;;;6.90;99.90;;;;;;5116954;28;20372;-82
2022/01/29 08:19:49;;;;;;;;;;;7.00;99.90;;;;;;5098500;28;19914;-82
2022/01/29 08:22:18;;;;;;;;;;;7.00;99.90;;;;;;5116121;28;19920;-82
2022/01/29 08:24:44;;;;;;;;;;;7.10;99.90;;;;;;5116716;28;19912;-82
2022/01/29 08:27:09;;;;;;;;;;;7.10;99.90;;;;;;5116123;28;20316;-81
2022/01/29 08:29:35;;;;;;;;;;;7.10;99.90;;;;;;5098571;28;20381;-82
2022/01/29 08:32:01;;;;;;;;;;;;;;;;;;5113471;28;20386;-80
2022/01/29 08:34:27;;;;;;;;;;;7.20;99.90;;;;;;5110761;28;19958;-81
2022/01/29 08:36:53;;;;;;;;;;;;;;;;;;5095393;28;19951;-81
2022/01/29 08:39:19;;;;;;;;;;;7.20;99.90;;;;;;5077836;28;19912;-82
2022/01/29 08:41:44;;;;;;;;;;;7.20;99.90;;;;;;5095970;28;19921;-82
2022/01/29 08:44:10;;;;;;;;;;;7.20;99.90;;;;;;5077212;28;19908;-82
2022/01/29 08:46:35;;;;;;;;;;;7.20;99.90;;;;;;5095972;28;20334;-82
2022/01/29 08:49:01;;;;;;;;;;;7.30;99.90;;;;;;5095350;28;20353;-82
2022/01/29 08:51:26;;;;;;;;;;;7.30;99.90;;;;;;5094918;28;19938;-84
2022/01/29 08:53:52;;;;;;;;;;;7.30;99.90;;;;;;5095817;28;19916;-81
2022/01/29 08:56:18;;;;;;;;;;;7.40;99.90;;;;;;5095871;28;19938;-83
2022/01/29 08:58:44;;;;;;;;;;;;;;;;;;5095687;28;19915;-83
2022/01/29 09:01:10;;;;;;;;;;;7.40;99.90;;;;;;5095060;28;19912;-82
2022/01/29 09:03:36;;;;;;;;;;;;;;;;;;5077423;28;19916;-82
2022/01/29 09:06:02;;;;;;;;;;;7.50;99.90;;;;;;5095303;28;19908;-83
2022/01/29 09:08:28;;;;;;;;;;;7.60;99.90;;;;;;5077379;28;20363;-82
2022/01/29 09:10:57;;;;;;;;;;;;;;;;;;5094896;28;19908;-76
2022/01/29 09:13:26;;;;;;;;;;;7.70;99.90;;;;;;5095202;28;20376;-81
2022/01/29 09:15:51;;;;;;;;;;;7.80;99.90;;;;;;5095334;28;19931;-80
2022/01/29 09:18:17;;;;;;;;;;;7.80;99.90;;;;;;5095037;28;19908;-80
2022/01/29 09:20:42;;;;;;;;;;;7.80;99.90;;;;;;5077084;28;19909;-80
2022/01/29 09:23:08;;;;;;;;;;;7.90;99.90;;;;;;5094546;28;20014;-80
2022/01/29 09:25:37;;;;;;;;;;;7.90;99.90;;;;;;5077013;28;19955;-79
2022/01/29 09:28:03;;;;;;;;;;;7.90;99.90;;;;;;5076528;28;19931;-79
2022/01/29 09:30:29;;;;;;;;;;;8.00;99.90;;;;;;5095107;28;20038;-79
2022/01/29 09:32:55;;;;;;;;;;;;;;;;;;5094924;28;19974;-75
2022/01/29 09:35:20;;;;;;;;;;;8.00;99.90;;;;;;5076950;28;20380;-79
2022/01/29 09:37:46;;;;;;;;;;;8.10;99.90;;;;;;5094964;28;19908;-79
2022/01/29 09:40:12;;;;;;;;;;;8.10;99.90;;;;;;5076196;28;20007;-79
2022/01/29 09:42:39;;;;;;;;;;;8.10;99.90;;;;;;5094775;28;19920;-79
2022/01/29 09:45:05;;;;;;;;;;;8.10;99.90;;;;;;5093830;28;20481;-78
2022/01/29 09:47:31;;;;;;;;;;;8.20;99.90;;;;;;5094454;28;19969;-79
2022/01/29 09:49:57;;;;;;;;;;;;;;;;;;5094058;28;20345;-81
2022/01/29 09:52:22;;;;;;;;;;;8.30;99.90;;;;;;5076224;28;19919;-83
2022/01/29 09:54:48;;;;;;;;;;;8.30;99.90;;;;;;5094593;28;19916;-83
2022/01/29 09:57:14;;;;;;;;;;;8.30;99.90;;;;;;5093910;28;20372;-80
2022/01/29 09:59:39;;;;;;;;;;;8.40;99.90;;;;;;5076348;28;19963;-80
2022/01/29 10:02:12;;;;;;;;;;;8.40;99.90;;;;;;5074596;28;19916;-81
2022/01/29 10:04:38;;;;;;;;;;;;;;;;;;5094141;28;19920;-81
2022/01/29 10:07:14;;;;;;;;;;;8.40;99.90;;;;;;5093517;28;19912;-83
2022/01/29 10:09:40;;;;;;;;;;;;;;;;;;5076386;28;20280;-80
2022/01/29 10:12:19;;;;;;;;;;;8.40;99.90;;;;;;5093503;28;19908;-83
2022/01/29 10:14:45;;;;;;;;;;;8.50;99.90;;;;;;5093991;28;19908;-83
2022/01/29 10:17:11;;;;;;;;;;;;;;;;;;5093524;28;19908;-83
2022/01/29 10:19:37;;;;;;;;;;;8.50;99.90;;;;;;5075993;28;19916;-83
2022/01/29 10:22:02;;;;;;;;;;;8.50;99.90;;;;;;5092987;28;19946;-83
2022/01/29 10:24:29;;;;;;;;;;;;;;;;;;5094394;28;20332;-82
2022/01/29 10:26:55;;;;;;;;;;;8.60;99.90;;;;;;5093926;28;19908;-82
2022/01/29 10:29:20;;;;;;;;;;;8.60;99.90;;;;;;5093126;28;20383;-82
2022/01/29 10:31:47;;;;;;;;;;;8.60;99.90;;;;;;5094250;28;19908;-83
2022/01/29 10:34:18;;;;;;;;;;;8.70;99.90;;;;;;5093267;28;19986;-82
2022/01/29 10:36:44;;;;;;;;;;;8.70;99.90;;;;;;5093531;28;19908;-83
2022/01/29 10:39:10;;;;;;;;;;;8.80;99.90;;;;;;5093188;28;19915;-83
2022/01/29 10:41:35;;;;;;;;;;;8.70;99.90;;;;;;5093763;28;19908;-83
2022/01/29 10:44:10;;;;;;;;;;;8.70;99.90;;;;;;5092688;28;20265;-82
2022/01/29 10:46:37;;;;;;;;;;;8.70;99.90;;;;;;5093848;28;19910;-83
2022/01/29 10:49:03;;;;;;;;;;;8.50;99.90;;;;;;5093142;28;19944;-82
2022/01/29 10:51:29;;;;;;;;;;;8.30;99.90;;;;;;5075260;28;19916;-83
2022/01/29 10:54:13;;;;;;;;;;;8.20;99.90;;;;;;5075494;28;19958;-82
2022/01/29 10:56:49;;;;;;;;;;;8.20;99.90;;;;;;5093863;28;19919;-82
2022/01/29 10:59:15;;;;;;;;;;;8.10;99.90;;;;;;5092602;28;19954;-82
2022/01/29 11:01:40;;;;;;;;;;;8.00;99.90;;;;;;5093098;28;20282;-84
2022/01/29 11:04:06;;;;;;;;;;;8.10;99.90;;;;;;5092564;28;20006;-83
2022/01/29 11:06:35;;;;;;;;;;;8.10;99.90;;;;;;5093132;28;19915;-84
2022/01/29 11:09:01;;;;;;;;;;;;;;;;;;5093003;28;19915;-78
2022/01/29 11:11:27;;;;;;;;;;;8.20;99.90;;;;;;5093703;28;20271;-83
2022/01/29 11:13:52;;;;;;;;;;;;;;;;;;5074758;28;19908;-83
2022/01/29 11:16:18;;;;;;;;;;;8.30;99.90;;;;;;5074395;28;20009;-83
2022/01/29 11:18:44;;;;;;;;;;;8.40;99.90;;;;;;5093175;28;19920;-83
2022/01/29 11:21:09;;;;;;;;;;;8.30;99.90;;;;;;5074212;28;20310;-83
